Winding Gulf, West Virginia
Current Conditions -  °F | °C
As of 10:51 AM on Monday 24 Nov 2014 (Local Time) from KBKW Reporting Station
Clear Clear  
Wind Chill: 65°   Ceiling: Unl
Heat Index: 65°   Visibility: 10mi
Dew Point: 41°   Wind: 20mph
Humidity: 42%   Direction: 220°SW
Pressure: 29.65"   Gusts: 39mph
Location:  37.6583°N, 81.237°W
Report Text: KBKW 241551Z AUTO 22017G34KT 10SM CLR 18/05 A2965 RMK AO2 PK WND 21036/1509 SLP022 T01830050
Loading
Personal Weather Stations






























Interactive Weather Map New forecast layout! Learn more

10-Day Weather Forecast

Advertisements
Track Severe Weather on mobile